Flight Track Log - Related Links

Times and Time Zones

All times are in EST time to prevent confusion due to time zone crossing. See the AMF1981 flight status page for this flight to view local times or setup timezone preferences in your user account.

Time Position Orientation Groundspeed Altitude Reporting Facility
EST Latitude Longitude Course Direction KTS MPH feet Rate Location/Type
Tue 07:43:31 PM 47.2225 -119.3769 288° West 221 254 2,700  Level Seattle Center
Tue 07:44:32 PM 47.2444 -119.4739 289° West 254 292 4,300 1,377 Climbing Seattle Center
Tue 07:45:33 PM 47.2675 -119.5736 293° West 258 297 5,500 1,082 Climbing Seattle Center
Tue 07:46:34 PM 47.2967 -119.6728 293° West 262 302 6,500 1,073 Climbing Seattle Center
Tue 07:47:36 PM 47.3244 -119.7717 294° West 262 302 7,700 1,171 Climbing Seattle Center
Tue 07:48:37 PM 47.3536 -119.8686 298° West 260 299 8,900 1,230 Climbing Seattle Center
Tue 07:49:38 PM 47.3858 -119.9594 300° West 252 290 10,200 1,033 Climbing Seattle Center
Tue 07:50:39 PM 47.4194 -120.0461 300° West 246 283 11,000 934 Climbing Seattle Center
Tue 07:51:40 PM 47.4542 -120.1344 298° West 247 284 12,100 934 Climbing Seattle Center
Tue 07:52:41 PM 47.4864 -120.2250 297° West 249 287 12,900 393 Climbing Seattle Center
Tue 07:53:42 PM 47.5194 -120.3217 297° West 261 300 12,900  Level Seattle Center
Tue 07:54:43 PM 47.5550 -120.4231 299° West 276 318 12,900  Level Seattle Center
Tue 07:55:44 PM 47.5997 -120.5428 291° West 277 319 12,900  Level Seattle Center
Tue 07:56:45 PM 47.6275 -120.6481 287° West 276 318 12,900  Level Seattle Center
Tue 07:57:46 PM 47.6500 -120.7547 284° West 272 313 12,900 -98 Level Seattle Center
Tue 07:58:47 PM 47.6686 -120.8636 279° West 272 313 12,700 -443 Descending Seattle Center
Tue 07:59:48 PM 47.6808 -120.9778 282° West 281 323 12,000 -344 Descending Seattle Center
Tue 08:00:49 PM 47.6967 -121.0883 284° West 280 322 12,000  Level Seattle Center
Tue 08:02:02 PM 47.7144 -121.1969 283° West 275 316 12,000  Level Seattle Center
Tue 08:02:33 PM 47.7294 -121.2914 282° West 274 315 12,000  Level Seattle Center
Tue 08:03:04 PM 47.7344 -121.3269 286° West 273 314 12,000  Level Seattle Center
Tue 08:03:34 PM 47.7486 -121.3994 285° West 271 312 12,000 -295 Level Seattle Center
Tue 08:04:05 PM 47.7544 -121.4328 276° West 271 312 11,700 -885 Descending Seattle Center
Tue 08:04:35 PM 47.7594 -121.5092 267° West 277 319 11,100 -1,279 Descending Seattle Center
Tue 08:05:06 PM 47.7575 -121.5703 270° West 280 322 10,400 -1,082 Descending Seattle Center
Tue 08:05:36 PM 47.7572 -121.6297 267° West 273 314 10,000 -393 Descending Seattle Center
Tue 08:06:07 PM 47.7553 -121.6808 268° West 271 312 10,000 -522 Level Seattle Center
Tue 08:07:08 PM 47.7528 -121.7894 268° West 268 308 9,200 -1,082 Descending Seattle Center
Tue 08:08:09 PM 47.7503 -121.8931 268° West 258 297 7,800 -1,623 Descending Seattle Center
Tue 08:09:10 PM 47.7478 -121.9989 266° West 258 297 5,900 -2,250 Descending Seattle Center
Tue 08:09:45 PM 47.7436 -122.0800 266° West 271 312 4,200 -2,118 Descending Seattle Center
Tue 08:10:52 PM 47.7375 -122.1956 264° West 262 302 2,300 -984 Descending Seattle Center
Tue 08:11:47 PM 47.7311 -122.2847 265° West 224 258 2,200 -52 Descending Seattle Center
Tue 08:12:47 PM 47.7253 -122.3769 236° Southwest 215 247 2,200  Level Seattle Center
Tue 08:13:48 PM 47.6967 -122.4389 156° South 192 221 2,200  Level Seattle Center
Tue 08:14:49 PM 47.6456 -122.4044 147° Southeast 199 229 2,200 -295 Level Seattle Center
Tue 08:15:50 PM 47.6106 -122.3711 151° Southeast 147 169 1,600 -626 Descending Seattle Center
Tue 08:16:44 PM 47.5769 -122.3436 150° Southeast 144 166 1,000 -742 Descending Seattle Center
Tue 08:17:19 PM 47.5622 -122.3311 148° Southeast 138 159 500 -500 Descending Seattle Center
Tue 08:18:20 PM 47.5294 -122.3011 148° Southeast 134 154 200 -295 Descending Seattle Center

Login

Don't have an account? Register now (free) for customized features, flight alerts, and more!